sensor_id;sensor_type;location;lat;lon;timestamp;temperature;humidity
68701;DHT22;55682;51.114;5.882;2023-05-29T00:02:09;16.36;65.59
68701;DHT22;55682;51.114;5.882;2023-05-29T00:04:35;16.33;65.66
68701;DHT22;55682;51.114;5.882;2023-05-29T00:07:02;16.27;65.82
68701;DHT22;55682;51.114;5.882;2023-05-29T00:09:27;16.29;65.83
68701;DHT22;55682;51.114;5.882;2023-05-29T00:11:53;16.22;66.07
68701;DHT22;55682;51.114;5.882;2023-05-29T00:14:19;16.19;66.14
68701;DHT22;55682;51.114;5.882;2023-05-29T00:16:46;16.13;66.40
68701;DHT22;55682;51.114;5.882;2023-05-29T00:19:13;16.13;66.56
68701;DHT22;55682;51.114;5.882;2023-05-29T00:21:39;16.06;66.66
68701;DHT22;55682;51.114;5.882;2023-05-29T00:24:06;16.04;66.91
68701;DHT22;55682;51.114;5.882;2023-05-29T00:26:31;15.99;67.03
68701;DHT22;55682;51.114;5.882;2023-05-29T00:28:58;15.92;67.33
68701;DHT22;55682;51.114;5.882;2023-05-29T00:31:23;15.88;67.39
68701;DHT22;55682;51.114;5.882;2023-05-29T00:33:50;15.85;67.62
68701;DHT22;55682;51.114;5.882;2023-05-29T00:36:15;15.82;67.89
68701;DHT22;55682;51.114;5.882;2023-05-29T00:38:41;15.71;68.16
68701;DHT22;55682;51.114;5.882;2023-05-29T00:41:16;15.71;68.18
68701;DHT22;55682;51.114;5.882;2023-05-29T00:43:42;15.66;68.33
68701;DHT22;55682;51.114;5.882;2023-05-29T00:46:10;15.60;68.54
68701;DHT22;55682;51.114;5.882;2023-05-29T00:48:38;15.67;68.55
68701;DHT22;55682;51.114;5.882;2023-05-29T00:51:04;15.56;68.85
68701;DHT22;55682;51.114;5.882;2023-05-29T00:53:31;15.48;69.08
68701;DHT22;55682;51.114;5.882;2023-05-29T00:55:59;15.45;69.29
68701;DHT22;55682;51.114;5.882;2023-05-29T00:58:26;15.44;69.45
68701;DHT22;55682;51.114;5.882;2023-05-29T01:00:52;15.37;69.83
68701;DHT22;55682;51.114;5.882;2023-05-29T01:03:18;15.37;70.08
68701;DHT22;55682;51.114;5.882;2023-05-29T01:05:44;15.29;70.23
68701;DHT22;55682;51.114;5.882;2023-05-29T01:08:11;15.24;70.45
68701;DHT22;55682;51.114;5.882;2023-05-29T01:10:38;15.16;70.90
68701;DHT22;55682;51.114;5.882;2023-05-29T01:13:19;15.11;71.07
68701;DHT22;55682;51.114;5.882;2023-05-29T01:18:57;14.97;71.87
68701;DHT22;55682;51.114;5.882;2023-05-29T01:24:29;14.86;72.25
68701;DHT22;55682;51.114;5.882;2023-05-29T01:27:01;14.84;72.51
68701;DHT22;55682;51.114;5.882;2023-05-29T01:29:29;14.80;72.98
68701;DHT22;55682;51.114;5.882;2023-05-29T01:31:58;14.74;72.84
68701;DHT22;55682;51.114;5.882;2023-05-29T01:34:24;14.68;73.17
68701;DHT22;55682;51.114;5.882;2023-05-29T01:36:50;14.63;73.51
68701;DHT22;55682;51.114;5.882;2023-05-29T01:39:16;14.62;73.94
68701;DHT22;55682;51.114;5.882;2023-05-29T01:41:46;14.55;74.38
68701;DHT22;55682;51.114;5.882;2023-05-29T01:44:13;14.52;74.25
68701;DHT22;55682;51.114;5.882;2023-05-29T01:46:43;14.55;74.15
68701;DHT22;55682;51.114;5.882;2023-05-29T01:49:10;14.51;74.45
68701;DHT22;55682;51.114;5.882;2023-05-29T01:51:37;14.48;74.64
68701;DHT22;55682;51.114;5.882;2023-05-29T01:54:03;14.45;74.60
68701;DHT22;55682;51.114;5.882;2023-05-29T01:56:30;14.41;74.69
68701;DHT22;55682;51.114;5.882;2023-05-29T01:58:57;14.42;74.50
68701;DHT22;55682;51.114;5.882;2023-05-29T02:01:24;14.39;74.61
68701;DHT22;55682;51.114;5.882;2023-05-29T02:03:50;14.35;74.43
68701;DHT22;55682;51.114;5.882;2023-05-29T02:06:19;14.29;74.40
68701;DHT22;55682;51.114;5.882;2023-05-29T02:08:45;14.21;74.54
68701;DHT22;55682;51.114;5.882;2023-05-29T02:11:11;14.10;74.51
68701;DHT22;55682;51.114;5.882;2023-05-29T02:13:37;14.01;74.81
68701;DHT22;55682;51.114;5.882;2023-05-29T02:16:02;13.96;74.81
68701;DHT22;55682;51.114;5.882;2023-05-29T02:18:28;13.94;74.50
68701;DHT22;55682;51.114;5.882;2023-05-29T02:20:53;13.82;74.71
68701;DHT22;55682;51.114;5.882;2023-05-29T02:23:21;13.82;74.57
68701;DHT22;55682;51.114;5.882;2023-05-29T02:25:47;13.64;75.16
68701;DHT22;55682;51.114;5.882;2023-05-29T02:28:13;13.58;74.92
68701;DHT22;55682;51.114;5.882;2023-05-29T02:30:39;13.54;74.98
68701;DHT22;55682;51.114;5.882;2023-05-29T02:33:05;13.48;74.93
68701;DHT22;55682;51.114;5.882;2023-05-29T02:35:33;13.49;74.60
68701;DHT22;55682;51.114;5.882;2023-05-29T02:37:59;13.45;74.44
68701;DHT22;55682;51.114;5.882;2023-05-29T02:40:24;13.41;74.39
68701;DHT22;55682;51.114;5.882;2023-05-29T02:42:50;13.35;74.44
68701;DHT22;55682;51.114;5.882;2023-05-29T02:45:16;13.34;74.18
68701;DHT22;55682;51.114;5.882;2023-05-29T02:47:42;13.31;73.97
68701;DHT22;55682;51.114;5.882;2023-05-29T02:50:08;13.22;74.06
68701;DHT22;55682;51.114;5.882;2023-05-29T02:52:35;13.22;73.95
68701;DHT22;55682;51.114;5.882;2023-05-29T02:55:03;13.18;73.96
68701;DHT22;55682;51.114;5.882;2023-05-29T02:57:29;13.16;73.82
68701;DHT22;55682;51.114;5.882;2023-05-29T02:59:55;13.12;73.83
68701;DHT22;55682;51.114;5.882;2023-05-29T03:02:21;13.07;73.70
68701;DHT22;55682;51.114;5.882;2023-05-29T03:04:47;13.04;73.86
68701;DHT22;55682;51.114;5.882;2023-05-29T03:07:16;13.01;73.76
68701;DHT22;55682;51.114;5.882;2023-05-29T03:09:41;12.99;73.77
68701;DHT22;55682;51.114;5.882;2023-05-29T03:12:08;12.93;73.73
68701;DHT22;55682;51.114;5.882;2023-05-29T03:14:34;12.92;73.71
68701;DHT22;55682;51.114;5.882;2023-05-29T03:17:06;12.90;73.76
68701;DHT22;55682;51.114;5.882;2023-05-29T03:19:33;12.81;73.93
68701;DHT22;55682;51.114;5.882;2023-05-29T03:21:59;12.78;73.95
68701;DHT22;55682;51.114;5.882;2023-05-29T03:24:25;12.77;74.06
68701;DHT22;55682;51.114;5.882;2023-05-29T03:26:51;12.78;73.78
68701;DHT22;55682;51.114;5.882;2023-05-29T03:29:17;12.74;73.90
68701;DHT22;55682;51.114;5.882;2023-05-29T03:31:43;12.77;73.73
68701;DHT22;55682;51.114;5.882;2023-05-29T03:34:10;12.77;73.59
68701;DHT22;55682;51.114;5.882;2023-05-29T03:36:41;12.77;73.51
68701;DHT22;55682;51.114;5.882;2023-05-29T03:39:08;12.78;73.28
68701;DHT22;55682;51.114;5.882;2023-05-29T03:41:33;12.79;72.92
68701;DHT22;55682;51.114;5.882;2023-05-29T03:43:59;12.77;72.90
68701;DHT22;55682;51.114;5.882;2023-05-29T03:46:27;12.78;72.64
68701;DHT22;55682;51.114;5.882;2023-05-29T03:48:53;12.78;72.38
68701;DHT22;55682;51.114;5.882;2023-05-29T03:51:20;12.77;72.19
68701;DHT22;55682;51.114;5.882;2023-05-29T03:53:46;12.81;71.87
68701;DHT22;55682;51.114;5.882;2023-05-29T03:56:12;12.92;71.40
68701;DHT22;55682;51.114;5.882;2023-05-29T03:58:38;13.07;70.72
68701;DHT22;55682;51.114;5.882;2023-05-29T04:01:04;13.26;69.98
68701;DHT22;55682;51.114;5.882;2023-05-29T04:03:31;13.45;69.16
68701;DHT22;55682;51.114;5.882;2023-05-29T04:05:57;13.63;68.47
68701;DHT22;55682;51.114;5.882;2023-05-29T04:08:23;13.80;67.75
68701;DHT22;55682;51.114;5.882;2023-05-29T04:10:49;13.98;66.98
68701;DHT22;55682;51.114;5.882;2023-05-29T04:13:14;14.13;66.35
68701;DHT22;55682;51.114;5.882;2023-05-29T04:15:40;14.40;65.59
68701;DHT22;55682;51.114;5.882;2023-05-29T04:18:07;14.58;64.61
68701;DHT22;55682;51.114;5.882;2023-05-29T04:20:33;14.78;63.73
68701;DHT22;55682;51.114;5.882;2023-05-29T04:22:59;14.92;63.32
68701;DHT22;55682;51.114;5.882;2023-05-29T04:25:25;15.06;62.50
68701;DHT22;55682;51.114;5.882;2023-05-29T04:27:50;15.25;62.16
68701;DHT22;55682;51.114;5.882;2023-05-29T04:30:18;15.54;61.11
68701;DHT22;55682;51.114;5.882;2023-05-29T04:32:46;15.86;60.19
68701;DHT22;55682;51.114;5.882;2023-05-29T04:35:12;16.08;59.12
68701;DHT22;55682;51.114;5.882;2023-05-29T04:37:43;16.27;58.13
68701;DHT22;55682;51.114;5.882;2023-05-29T04:40:10;16.43;58.01
68701;DHT22;55682;51.114;5.882;2023-05-29T04:42:36;16.67;57.18
68701;DHT22;55682;51.114;5.882;2023-05-29T04:45:03;16.88;56.51
68701;DHT22;55682;51.114;5.882;2023-05-29T04:47:32;17.10;55.89
68701;DHT22;55682;51.114;5.882;2023-05-29T04:50:01;17.39;54.90
68701;DHT22;55682;51.114;5.882;2023-05-29T04:52:27;17.55;54.20
68701;DHT22;55682;51.114;5.882;2023-05-29T04:54:54;17.62;54.19
68701;DHT22;55682;51.114;5.882;2023-05-29T04:57:20;17.95;53.27
68701;DHT22;55682;51.114;5.882;2023-05-29T04:59:45;18.13;52.63
68701;DHT22;55682;51.114;5.882;2023-05-29T05:02:11;18.35;52.20
68701;DHT22;55682;51.114;5.882;2023-05-29T05:04:37;18.58;51.42
68701;DHT22;55682;51.114;5.882;2023-05-29T05:07:05;18.79;50.82
68701;DHT22;55682;51.114;5.882;2023-05-29T05:09:31;18.82;50.21
68701;DHT22;55682;51.114;5.882;2023-05-29T05:11:57;18.86;50.30
68701;DHT22;55682;51.114;5.882;2023-05-29T05:14:23;18.98;50.08
68701;DHT22;55682;51.114;5.882;2023-05-29T05:16:49;19.16;49.41
68701;DHT22;55682;51.114;5.882;2023-05-29T05:19:16;19.27;49.34
68701;DHT22;55682;51.114;5.882;2023-05-29T05:21:42;19.30;49.15
68701;DHT22;55682;51.114;5.882;2023-05-29T05:24:08;19.24;49.27
68701;DHT22;55682;51.114;5.882;2023-05-29T05:26:37;19.33;48.59
68701;DHT22;55682;51.114;5.882;2023-05-29T05:29:03;19.56;48.51
68701;DHT22;55682;51.114;5.882;2023-05-29T05:31:31;19.79;48.03
68701;DHT22;55682;51.114;5.882;2023-05-29T05:33:57;20.17;46.93
68701;DHT22;55682;51.114;5.882;2023-05-29T05:36:23;20.42;46.13
68701;DHT22;55682;51.114;5.882;2023-05-29T05:38:55;20.60;45.61
68701;DHT22;55682;51.114;5.882;2023-05-29T05:41:21;20.58;45.12
68701;DHT22;55682;51.114;5.882;2023-05-29T05:43:47;20.57;45.70
68701;DHT22;55682;51.114;5.882;2023-05-29T05:46:31;20.89;44.21
68701;DHT22;55682;51.114;5.882;2023-05-29T05:48:57;20.96;44.19
68701;DHT22;55682;51.114;5.882;2023-05-29T05:51:24;21.19;43.72
68701;DHT22;55682;51.114;5.882;2023-05-29T05:53:50;21.45;43.19
68701;DHT22;55682;51.114;5.882;2023-05-29T05:56:16;21.82;42.36
68701;DHT22;55682;51.114;5.882;2023-05-29T05:58:41;22.05;41.78
68701;DHT22;55682;51.114;5.882;2023-05-29T06:01:08;22.26;41.06
68701;DHT22;55682;51.114;5.882;2023-05-29T06:03:34;22.65;40.27
68701;DHT22;55682;51.114;5.882;2023-05-29T06:06:04;23.00;39.43
68701;DHT22;55682;51.114;5.882;2023-05-29T06:08:29;23.43;38.79
68701;DHT22;55682;51.114;5.882;2023-05-29T06:10:56;23.83;37.46
68701;DHT22;55682;51.114;5.882;2023-05-29T06:13:22;23.74;37.21
68701;DHT22;55682;51.114;5.882;2023-05-29T06:15:52;23.59;38.04
68701;DHT22;55682;51.114;5.882;2023-05-29T06:18:19;23.47;37.88
68701;DHT22;55682;51.114;5.882;2023-05-29T06:20:44;23.46;38.12
68701;DHT22;55682;51.114;5.882;2023-05-29T06:23:11;23.90;37.40
68701;DHT22;55682;51.114;5.882;2023-05-29T06:25:37;24.23;36.40
68701;DHT22;55682;51.114;5.882;2023-05-29T06:28:04;24.40;35.94
68701;DHT22;55682;51.114;5.882;2023-05-29T06:30:31;24.49;35.69
68701;DHT22;55682;51.114;5.882;2023-05-29T06:32:57;24.82;35.24
68701;DHT22;55682;51.114;5.882;2023-05-29T06:35:28;25.23;34.05
68701;DHT22;55682;51.114;5.882;2023-05-29T06:37:53;25.23;33.84
68701;DHT22;55682;51.114;5.882;2023-05-29T06:40:20;24.92;34.36
68701;DHT22;55682;51.114;5.882;2023-05-29T06:42:45;25.09;34.05
68701;DHT22;55682;51.114;5.882;2023-05-29T06:45:14;25.48;33.25
68701;DHT22;55682;51.114;5.882;2023-05-29T06:47:42;25.71;32.96
68701;DHT22;55682;51.114;5.882;2023-05-29T06:50:08;25.87;32.16
68701;DHT22;55682;51.114;5.882;2023-05-29T06:52:34;25.52;32.69
68701;DHT22;55682;51.114;5.882;2023-05-29T06:55:19;25.30;33.09
68701;DHT22;55682;51.114;5.882;2023-05-29T06:57:45;24.95;33.94
68701;DHT22;55682;51.114;5.882;2023-05-29T07:00:12;25.00;34.13
68701;DHT22;55682;51.114;5.882;2023-05-29T07:02:44;25.48;32.87
68701;DHT22;55682;51.114;5.882;2023-05-29T07:05:10;26.04;32.17
68701;DHT22;55682;51.114;5.882;2023-05-29T07:07:36;26.75;30.35
68701;DHT22;55682;51.114;5.882;2023-05-29T07:10:02;27.09;29.84
68701;DHT22;55682;51.114;5.882;2023-05-29T07:12:29;27.69;28.97
68701;DHT22;55682;51.114;5.882;2023-05-29T07:14:55;28.06;28.13
68701;DHT22;55682;51.114;5.882;2023-05-29T07:17:21;27.93;28.05
68701;DHT22;55682;51.114;5.882;2023-05-29T07:19:54;27.66;28.39
68701;DHT22;55682;51.114;5.882;2023-05-29T07:22:20;27.55;28.74
68701;DHT22;55682;51.114;5.882;2023-05-29T07:24:46;27.65;28.16
68701;DHT22;55682;51.114;5.882;2023-05-29T07:27:12;27.34;28.84
68701;DHT22;55682;51.114;5.882;2023-05-29T07:29:38;27.51;29.01
68701;DHT22;55682;51.114;5.882;2023-05-29T07:32:04;28.18;27.89
68701;DHT22;55682;51.114;5.882;2023-05-29T07:34:30;28.37;27.29
68701;DHT22;55682;51.114;5.882;2023-05-29T07:37:05;28.67;27.00
68701;DHT22;55682;51.114;5.882;2023-05-29T07:39:34;28.77;26.46
68701;DHT22;55682;51.114;5.882;2023-05-29T07:42:05;29.00;26.10
68701;DHT22;55682;51.114;5.882;2023-05-29T07:44:31;29.00;25.99
68701;DHT22;55682;51.114;5.882;2023-05-29T07:46:57;28.92;26.01
68701;DHT22;55682;51.114;5.882;2023-05-29T07:49:36;28.68;26.60
68701;DHT22;55682;51.114;5.882;2023-05-29T07:52:03;29.27;25.70
68701;DHT22;55682;51.114;5.882;2023-05-29T07:54:31;29.52;25.01
68701;DHT22;55682;51.114;5.882;2023-05-29T07:57:01;29.54;24.91
68701;DHT22;55682;51.114;5.882;2023-05-29T07:59:29;29.20;25.30
68701;DHT22;55682;51.114;5.882;2023-05-29T08:01:56;28.74;26.03
68701;DHT22;55682;51.114;5.882;2023-05-29T08:04:42;28.82;26.17
68701;DHT22;55682;51.114;5.882;2023-05-29T08:07:08;28.93;26.07
68701;DHT22;55682;51.114;5.882;2023-05-29T08:09:35;28.94;25.75
68701;DHT22;55682;51.114;5.882;2023-05-29T08:12:02;28.82;26.14
68701;DHT22;55682;51.114;5.882;2023-05-29T08:14:28;29.16;25.89
68701;DHT22;55682;51.114;5.882;2023-05-29T08:16:55;29.72;25.11
68701;DHT22;55682;51.114;5.882;2023-05-29T08:19:20;29.62;24.97
68701;DHT22;55682;51.114;5.882;2023-05-29T08:21:47;29.54;24.94
68701;DHT22;55682;51.114;5.882;2023-05-29T08:24:12;29.32;25.27
68701;DHT22;55682;51.114;5.882;2023-05-29T08:26:38;29.17;25.49
68701;DHT22;55682;51.114;5.882;2023-05-29T08:29:03;29.14;25.62
68701;DHT22;55682;51.114;5.882;2023-05-29T08:31:29;29.30;25.34
68701;DHT22;55682;51.114;5.882;2023-05-29T08:33:55;29.31;25.02
68701;DHT22;55682;51.114;5.882;2023-05-29T08:36:21;28.89;25.78
68701;DHT22;55682;51.114;5.882;2023-05-29T08:38:50;29.03;25.89
68701;DHT22;55682;51.114;5.882;2023-05-29T08:41:28;29.01;25.59
68701;DHT22;55682;51.114;5.882;2023-05-29T08:43:59;28.55;26.25
68701;DHT22;55682;51.114;5.882;2023-05-29T08:46:27;28.56;26.70
68701;DHT22;55682;51.114;5.882;2023-05-29T08:48:53;27.94;27.39
68701;DHT22;55682;51.114;5.882;2023-05-29T08:51:20;27.95;27.34
68701;DHT22;55682;51.114;5.882;2023-05-29T08:53:50;28.13;27.29
68701;DHT22;55682;51.114;5.882;2023-05-29T08:56:17;28.42;27.16
68701;DHT22;55682;51.114;5.882;2023-05-29T08:58:43;28.68;26.52
68701;DHT22;55682;51.114;5.882;2023-05-29T09:01:10;28.95;26.46
68701;DHT22;55682;51.114;5.882;2023-05-29T09:03:36;29.62;25.33
68701;DHT22;55682;51.114;5.882;2023-05-29T09:06:04;30.10;24.69
68701;DHT22;55682;51.114;5.882;2023-05-29T09:08:30;30.34;24.21
68701;DHT22;55682;51.114;5.882;2023-05-29T09:10:55;29.96;24.67
68701;DHT22;55682;51.114;5.882;2023-05-29T09:13:22;29.38;25.53
68701;DHT22;55682;51.114;5.882;2023-05-29T09:15:48;29.73;25.55
68701;DHT22;55682;51.114;5.882;2023-05-29T09:18:16;30.00;24.78
68701;DHT22;55682;51.114;5.882;2023-05-29T09:20:42;29.51;25.41
68701;DHT22;55682;51.114;5.882;2023-05-29T09:23:09;29.73;25.01
68701;DHT22;55682;51.114;5.882;2023-05-29T09:25:40;29.75;24.94
68701;DHT22;55682;51.114;5.882;2023-05-29T09:28:08;28.77;25.84
68701;DHT22;55682;51.114;5.882;2023-05-29T09:33:03;28.48;27.04
68701;DHT22;55682;51.114;5.882;2023-05-29T09:38:04;29.13;26.13
68701;DHT22;55682;51.114;5.882;2023-05-29T09:40:32;28.99;25.87
68701;DHT22;55682;51.114;5.882;2023-05-29T09:43:14;28.50;26.57
68701;DHT22;55682;51.114;5.882;2023-05-29T09:45:47;28.87;26.62
68701;DHT22;55682;51.114;5.882;2023-05-29T09:48:23;29.78;25.28
68701;DHT22;55682;51.114;5.882;2023-05-29T09:50:49;30.04;24.33
68701;DHT22;55682;51.114;5.882;2023-05-29T09:53:18;30.19;24.17
68701;DHT22;55682;51.114;5.882;2023-05-29T09:55:47;29.38;25.20
68701;DHT22;55682;51.114;5.882;2023-05-29T09:58:14;29.13;25.88
68701;DHT22;55682;51.114;5.882;2023-05-29T10:00:45;28.99;25.96
68701;DHT22;55682;51.114;5.882;2023-05-29T10:03:11;28.26;26.88
68701;DHT22;55682;51.114;5.882;2023-05-29T10:05:40;28.31;27.09
68701;DHT22;55682;51.114;5.882;2023-05-29T10:08:14;28.84;26.40
68701;DHT22;55682;51.114;5.882;2023-05-29T10:10:44;28.50;26.65
68701;DHT22;55682;51.114;5.882;2023-05-29T10:13:12;28.34;26.81
68701;DHT22;55682;51.114;5.882;2023-05-29T10:15:49;28.53;26.52
68701;DHT22;55682;51.114;5.882;2023-05-29T10:18:25;28.49;26.59
68701;DHT22;55682;51.114;5.882;2023-05-29T10:20:52;28.08;27.31
68701;DHT22;55682;51.114;5.882;2023-05-29T10:23:23;28.26;26.96
68701;DHT22;55682;51.114;5.882;2023-05-29T10:25:53;27.50;28.29
68701;DHT22;55682;51.114;5.882;2023-05-29T10:28:20;28.16;27.37
68701;DHT22;55682;51.114;5.882;2023-05-29T10:31:07;29.00;26.03
68701;DHT22;55682;51.114;5.882;2023-05-29T10:34:02;29.54;25.09
68701;DHT22;55682;51.114;5.882;2023-05-29T10:36:41;30.07;23.67
68701;DHT22;55682;51.114;5.882;2023-05-29T10:39:10;30.37;23.43
68701;DHT22;55682;51.114;5.882;2023-05-29T10:41:35;30.63;23.04
68701;DHT22;55682;51.114;5.882;2023-05-29T10:49:24;29.60;24.43
68701;DHT22;55682;51.114;5.882;2023-05-29T10:51:51;30.05;24.30
68701;DHT22;55682;51.114;5.882;2023-05-29T10:54:25;29.98;24.08
68701;DHT22;55682;51.114;5.882;2023-05-29T10:57:00;30.17;24.01
68701;DHT22;55682;51.114;5.882;2023-05-29T10:59:26;30.41;23.72
68701;DHT22;55682;51.114;5.882;2023-05-29T11:01:57;30.56;23.10
68701;DHT22;55682;51.114;5.882;2023-05-29T11:06:52;30.51;23.22
68701;DHT22;55682;51.114;5.882;2023-05-29T11:09:30;30.31;23.67
68701;DHT22;55682;51.114;5.882;2023-05-29T11:12:29;30.46;23.74
68701;DHT22;55682;51.114;5.882;2023-05-29T11:15:08;30.99;22.75
68701;DHT22;55682;51.114;5.882;2023-05-29T11:20:09;30.50;23.27
68701;DHT22;55682;51.114;5.882;2023-05-29T11:25:13;30.33;23.57
68701;DHT22;55682;51.114;5.882;2023-05-29T11:27:39;30.17;23.78
68701;DHT22;55682;51.114;5.882;2023-05-29T11:30:05;30.24;23.95
68701;DHT22;55682;51.114;5.882;2023-05-29T11:32:36;30.24;23.66
68701;DHT22;55682;51.114;5.882;2023-05-29T11:35:08;30.26;23.79
68701;DHT22;55682;51.114;5.882;2023-05-29T11:37:35;30.59;23.46
68701;DHT22;55682;51.114;5.882;2023-05-29T11:40:04;30.49;23.11
68701;DHT22;55682;51.114;5.882;2023-05-29T11:42:31;30.20;23.14
68701;DHT22;55682;51.114;5.882;2023-05-29T11:45:16;29.96;23.66
68701;DHT22;55682;51.114;5.882;2023-05-29T11:48:00;29.96;23.70
68701;DHT22;55682;51.114;5.882;2023-05-29T11:50:27;30.09;23.88
68701;DHT22;55682;51.114;5.882;2023-05-29T11:52:55;30.11;23.94
68701;DHT22;55682;51.114;5.882;2023-05-29T11:55:22;30.03;24.41
68701;DHT22;55682;51.114;5.882;2023-05-29T11:57:49;29.51;24.71
68701;DHT22;55682;51.114;5.882;2023-05-29T12:00:17;28.86;26.09
68701;DHT22;55682;51.114;5.882;2023-05-29T12:02:43;28.15;27.20
68701;DHT22;55682;51.114;5.882;2023-05-29T12:05:13;27.58;28.35
68701;DHT22;55682;51.114;5.882;2023-05-29T12:08:01;26.50;30.29
68701;DHT22;55682;51.114;5.882;2023-05-29T12:10:30;25.60;32.02
68701;DHT22;55682;51.114;5.882;2023-05-29T12:12:59;25.62;31.99
68701;DHT22;55682;51.114;5.882;2023-05-29T12:15:25;25.65;32.16
68701;DHT22;55682;51.114;5.882;2023-05-29T12:17:53;25.87;31.85
68701;DHT22;55682;51.114;5.882;2023-05-29T12:20:22;25.73;31.83
68701;DHT22;55682;51.114;5.882;2023-05-29T12:22:49;25.73;31.95
68701;DHT22;55682;51.114;5.882;2023-05-29T12:25:15;25.95;31.63
68701;DHT22;55682;51.114;5.882;2023-05-29T12:27:46;26.08;31.51
68701;DHT22;55682;51.114;5.882;2023-05-29T12:30:20;26.25;31.05
68701;DHT22;55682;51.114;5.882;2023-05-29T12:32:53;26.21;31.01
68701;DHT22;55682;51.114;5.882;2023-05-29T12:35:24;26.13;31.35
68701;DHT22;55682;51.114;5.882;2023-05-29T12:40:24;25.98;31.60
68701;DHT22;55682;51.114;5.882;2023-05-29T12:42:58;26.15;31.36
68701;DHT22;55682;51.114;5.882;2023-05-29T12:45:25;25.89;31.92
68701;DHT22;55682;51.114;5.882;2023-05-29T12:48:03;25.21;32.85
68701;DHT22;55682;51.114;5.882;2023-05-29T12:50:37;25.23;32.71
68701;DHT22;55682;51.114;5.882;2023-05-29T12:53:11;25.33;32.48
68701;DHT22;55682;51.114;5.882;2023-05-29T12:55:39;25.43;32.58
68701;DHT22;55682;51.114;5.882;2023-05-29T12:58:06;25.64;32.15
68701;DHT22;55682;51.114;5.882;2023-05-29T13:00:40;25.82;31.71
68701;DHT22;55682;51.114;5.882;2023-05-29T13:03:07;25.61;32.15
68701;DHT22;55682;51.114;5.882;2023-05-29T13:05:33;25.52;32.31
68701;DHT22;55682;51.114;5.882;2023-05-29T13:07:58;25.67;32.15
68701;DHT22;55682;51.114;5.882;2023-05-29T13:10:26;25.82;31.78
68701;DHT22;55682;51.114;5.882;2023-05-29T13:12:56;25.42;32.25
68701;DHT22;55682;51.114;5.882;2023-05-29T13:15:25;25.28;32.37
68701;DHT22;55682;51.114;5.882;2023-05-29T13:17:52;25.40;32.35
68701;DHT22;55682;51.114;5.882;2023-05-29T13:20:19;25.54;32.16
68701;DHT22;55682;51.114;5.882;2023-05-29T13:22:46;25.39;32.53
68701;DHT22;55682;51.114;5.882;2023-05-29T13:25:14;25.27;32.53
68701;DHT22;55682;51.114;5.882;2023-05-29T13:27:43;25.36;32.28
68701;DHT22;55682;51.114;5.882;2023-05-29T13:30:10;25.52;32.44
68701;DHT22;55682;51.114;5.882;2023-05-29T13:32:36;25.67;31.61
68701;DHT22;55682;51.114;5.882;2023-05-29T13:35:02;25.67;31.49
68701;DHT22;55682;51.114;5.882;2023-05-29T13:37:28;25.72;31.23
68701;DHT22;55682;51.114;5.882;2023-05-29T13:39:54;25.73;31.26
68701;DHT22;55682;51.114;5.882;2023-05-29T13:42:20;25.67;31.25
68701;DHT22;55682;51.114;5.882;2023-05-29T13:44:47;25.68;31.25
68701;DHT22;55682;51.114;5.882;2023-05-29T13:47:13;25.63;31.06
68701;DHT22;55682;51.114;5.882;2023-05-29T13:49:39;25.59;31.28
68701;DHT22;55682;51.114;5.882;2023-05-29T13:52:05;25.59;31.12
68701;DHT22;55682;51.114;5.882;2023-05-29T13:54:32;25.53;31.20
68701;DHT22;55682;51.114;5.882;2023-05-29T13:57:04;25.32;31.48
68701;DHT22;55682;51.114;5.882;2023-05-29T13:59:34;25.17;31.99
68701;DHT22;55682;51.114;5.882;2023-05-29T14:02:01;25.13;32.10
68701;DHT22;55682;51.114;5.882;2023-05-29T14:04:29;25.31;31.88
68701;DHT22;55682;51.114;5.882;2023-05-29T14:06:55;25.35;31.62
68701;DHT22;55682;51.114;5.882;2023-05-29T14:09:22;25.49;31.82
68701;DHT22;55682;51.114;5.882;2023-05-29T14:11:58;25.60;31.60
68701;DHT22;55682;51.114;5.882;2023-05-29T14:14:24;25.54;31.67
68701;DHT22;55682;51.114;5.882;2023-05-29T14:16:50;25.46;31.51
68701;DHT22;55682;51.114;5.882;2023-05-29T14:19:17;25.27;31.77
68701;DHT22;55682;51.114;5.882;2023-05-29T14:21:43;25.30;32.09
68701;DHT22;55682;51.114;5.882;2023-05-29T14:24:09;25.39;31.86
68701;DHT22;55682;51.114;5.882;2023-05-29T14:26:35;25.20;31.93
68701;DHT22;55682;51.114;5.882;2023-05-29T14:29:01;25.10;32.19
68701;DHT22;55682;51.114;5.882;2023-05-29T14:31:27;24.93;32.48
68701;DHT22;55682;51.114;5.882;2023-05-29T14:33:53;24.99;32.40
68701;DHT22;55682;51.114;5.882;2023-05-29T14:36:18;25.03;31.99
68701;DHT22;55682;51.114;5.882;2023-05-29T14:38:44;24.98;32.08
68701;DHT22;55682;51.114;5.882;2023-05-29T14:41:11;25.07;32.17
68701;DHT22;55682;51.114;5.882;2023-05-29T14:43:42;24.80;32.34
68701;DHT22;55682;51.114;5.882;2023-05-29T14:46:08;24.68;32.89
68701;DHT22;55682;51.114;5.882;2023-05-29T14:48:34;24.78;32.55
68701;DHT22;55682;51.114;5.882;2023-05-29T14:51:00;24.85;32.51
68701;DHT22;55682;51.114;5.882;2023-05-29T14:53:26;24.77;32.64
68701;DHT22;55682;51.114;5.882;2023-05-29T14:55:52;24.86;32.64
68701;DHT22;55682;51.114;5.882;2023-05-29T14:58:17;24.84;32.26
68701;DHT22;55682;51.114;5.882;2023-05-29T15:00:43;24.84;32.59
68701;DHT22;55682;51.114;5.882;2023-05-29T15:03:09;24.79;32.56
68701;DHT22;55682;51.114;5.882;2023-05-29T15:05:34;24.60;32.86
68701;DHT22;55682;51.114;5.882;2023-05-29T15:08:00;24.58;33.13
68701;DHT22;55682;51.114;5.882;2023-05-29T15:10:26;24.61;32.92
68701;DHT22;55682;51.114;5.882;2023-05-29T15:12:53;24.46;33.12
68701;DHT22;55682;51.114;5.882;2023-05-29T15:15:25;24.35;33.32
68701;DHT22;55682;51.114;5.882;2023-05-29T15:17:52;24.19;33.76
68701;DHT22;55682;51.114;5.882;2023-05-29T15:20:25;24.21;33.83
68701;DHT22;55682;51.114;5.882;2023-05-29T15:22:52;24.33;33.54
68701;DHT22;55682;51.114;5.882;2023-05-29T15:25:19;24.31;33.70
68701;DHT22;55682;51.114;5.882;2023-05-29T15:27:45;24.42;33.43
68701;DHT22;55682;51.114;5.882;2023-05-29T15:30:16;24.40;33.44
68701;DHT22;55682;51.114;5.882;2023-05-29T15:32:43;24.35;33.41
68701;DHT22;55682;51.114;5.882;2023-05-29T15:35:14;24.31;33.51
68701;DHT22;55682;51.114;5.882;2023-05-29T15:37:41;24.24;33.57
68701;DHT22;55682;51.114;5.882;2023-05-29T15:40:07;24.01;33.90
68701;DHT22;55682;51.114;5.882;2023-05-29T15:42:34;23.74;34.36
68701;DHT22;55682;51.114;5.882;2023-05-29T15:45:02;23.44;34.80
68701;DHT22;55682;51.114;5.882;2023-05-29T15:47:29;23.27;35.26
68701;DHT22;55682;51.114;5.882;2023-05-29T15:49:56;23.28;35.29
68701;DHT22;55682;51.114;5.882;2023-05-29T15:52:24;23.40;34.93
68701;DHT22;55682;51.114;5.882;2023-05-29T15:54:49;23.41;34.27
68701;DHT22;55682;51.114;5.882;2023-05-29T15:57:15;23.26;34.55
68701;DHT22;55682;51.114;5.882;2023-05-29T15:59:40;23.26;34.58
68701;DHT22;55682;51.114;5.882;2023-05-29T16:02:06;23.38;34.17